sensor_id;sensor_type;location;lat;lon;timestamp;pressure;altitude;pressure_sealevel;temperature;humidity
85821;BME280;76265;50.102;8.854;2024-03-08T00:02:24;100677.88;;;4.62;58.33
85821;BME280;76265;50.102;8.854;2024-03-08T00:04:51;100684.41;;;4.57;58.63
85821;BME280;76265;50.102;8.854;2024-03-08T00:07:18;100672.34;;;4.50;58.86
85821;BME280;76265;50.102;8.854;2024-03-08T00:09:47;100672.50;;;4.47;59.07
85821;BME280;76265;50.102;8.854;2024-03-08T00:12:14;100673.28;;;4.49;59.00
85821;BME280;76265;50.102;8.854;2024-03-08T00:14:40;100673.50;;;4.44;58.99
85821;BME280;76265;50.102;8.854;2024-03-08T00:17:07;100669.19;;;4.42;59.09
85821;BME280;76265;50.102;8.854;2024-03-08T00:19:35;100664.19;;;4.36;59.91
85821;BME280;76265;50.102;8.854;2024-03-08T00:22:02;100672.38;;;4.32;59.46
85821;BME280;76265;50.102;8.854;2024-03-08T00:24:29;100676.13;;;4.28;59.84
85821;BME280;76265;50.102;8.854;2024-03-08T00:26:58;100665.84;;;4.21;60.53
85821;BME280;76265;50.102;8.854;2024-03-08T00:29:25;100675.66;;;4.20;60.28
85821;BME280;76265;50.102;8.854;2024-03-08T00:31:52;100667.88;;;4.16;60.60
85821;BME280;76265;50.102;8.854;2024-03-08T00:34:19;100673.31;;;4.14;60.12
85821;BME280;76265;50.102;8.854;2024-03-08T00:36:45;100663.75;;;4.10;59.99
85821;BME280;76265;50.102;8.854;2024-03-08T00:39:13;100662.97;;;4.08;59.91
85821;BME280;76265;50.102;8.854;2024-03-08T00:41:40;100662.19;;;4.06;59.94
85821;BME280;76265;50.102;8.854;2024-03-08T00:44:08;100654.34;;;4.03;60.50
85821;BME280;76265;50.102;8.854;2024-03-08T00:46:36;100663.44;;;3.99;60.73
85821;BME280;76265;50.102;8.854;2024-03-08T00:49:03;100647.56;;;3.96;60.37
85821;BME280;76265;50.102;8.854;2024-03-08T00:51:30;100659.34;;;3.92;61.01
85821;BME280;76265;50.102;8.854;2024-03-08T00:53:57;100649.78;;;3.88;60.74
85821;BME280;76265;50.102;8.854;2024-03-08T00:56:24;100649.22;;;3.81;61.71
85821;BME280;76265;50.102;8.854;2024-03-08T00:58:51;100646.56;;;3.81;61.66
85821;BME280;76265;50.102;8.854;2024-03-08T01:01:20;100653.88;;;3.78;61.98
85821;BME280;76265;50.102;8.854;2024-03-08T01:03:47;100650.50;;;3.74;61.03
85821;BME280;76265;50.102;8.854;2024-03-08T01:06:14;100642.69;;;3.69;61.43
85821;BME280;76265;50.102;8.854;2024-03-08T01:08:41;100638.47;;;3.65;61.40
85821;BME280;76265;50.102;8.854;2024-03-08T01:11:08;100641.44;;;3.59;62.70
85821;BME280;76265;50.102;8.854;2024-03-08T01:13:37;100632.66;;;3.57;62.13
85821;BME280;76265;50.102;8.854;2024-03-08T01:16:04;100629.22;;;3.55;62.07
85821;BME280;76265;50.102;8.854;2024-03-08T01:18:33;100628.44;;;3.53;62.68
85821;BME280;76265;50.102;8.854;2024-03-08T01:21:00;100625.06;;;3.50;62.09
85821;BME280;76265;50.102;8.854;2024-03-08T01:23:27;100619.16;;;3.43;62.63
85821;BME280;76265;50.102;8.854;2024-03-08T01:25:55;100623.53;;;3.44;63.12
85821;BME280;76265;50.102;8.854;2024-03-08T01:28:23;100603.63;;;3.34;62.98
85821;BME280;76265;50.102;8.854;2024-03-08T01:30:50;100615.16;;;3.34;62.67
85821;BME280;76265;50.102;8.854;2024-03-08T01:33:22;100610.91;;;3.30;63.71
85821;BME280;76265;50.102;8.854;2024-03-08T01:35:51;100612.81;;;3.28;63.10
85821;BME280;76265;50.102;8.854;2024-03-08T01:38:18;100601.53;;;3.23;63.85
85821;BME280;76265;50.102;8.854;2024-03-08T01:40:47;100593.56;;;3.22;63.23
85821;BME280;76265;50.102;8.854;2024-03-08T01:43:18;100586.69;;;3.18;63.63
85821;BME280;76265;50.102;8.854;2024-03-08T01:45:45;100585.03;;;3.15;64.06
85821;BME280;76265;50.102;8.854;2024-03-08T01:48:13;100597.63;;;3.12;64.53
85821;BME280;76265;50.102;8.854;2024-03-08T01:50:40;100590.75;;;3.07;64.23
85821;BME280;76265;50.102;8.854;2024-03-08T01:53:09;100578.53;;;3.03;65.12
85821;BME280;76265;50.102;8.854;2024-03-08T01:55:39;100584.00;;;3.00;65.27
85821;BME280;76265;50.102;8.854;2024-03-08T01:58:06;100581.34;;;3.00;65.19
85821;BME280;76265;50.102;8.854;2024-03-08T02:00:35;100574.28;;;2.99;65.21
85821;BME280;76265;50.102;8.854;2024-03-08T02:03:04;100573.63;;;2.94;64.51
85821;BME280;76265;50.102;8.854;2024-03-08T02:05:31;100571.03;;;2.93;65.02
85821;BME280;76265;50.102;8.854;2024-03-08T02:07:58;100575.66;;;2.89;66.00
85821;BME280;76265;50.102;8.854;2024-03-08T02:10:27;100569.69;;;2.84;66.07
85821;BME280;76265;50.102;8.854;2024-03-08T02:12:54;100556.53;;;2.81;66.03
85821;BME280;76265;50.102;8.854;2024-03-08T02:15:22;100560.28;;;2.77;65.28
85821;BME280;76265;50.102;8.854;2024-03-08T02:17:49;100557.81;;;2.72;66.08
85821;BME280;76265;50.102;8.854;2024-03-08T02:20:16;100551.94;;;2.66;66.54
85821;BME280;76265;50.102;8.854;2024-03-08T02:22:46;100552.88;;;2.65;66.67
85821;BME280;76265;50.102;8.854;2024-03-08T02:25:14;100554.72;;;2.63;67.08
85821;BME280;76265;50.102;8.854;2024-03-08T02:27:41;100543.38;;;2.59;68.05
85821;BME280;76265;50.102;8.854;2024-03-08T02:30:10;100550.66;;;2.56;67.19
85821;BME280;76265;50.102;8.854;2024-03-08T02:32:38;100548.00;;;2.56;66.92
85821;BME280;76265;50.102;8.854;2024-03-08T02:35:05;100553.38;;;2.54;67.07
85821;BME280;76265;50.102;8.854;2024-03-08T02:37:32;100554.41;;;2.52;67.65
85821;BME280;76265;50.102;8.854;2024-03-08T02:40:01;100555.44;;;2.47;68.32
85821;BME280;76265;50.102;8.854;2024-03-08T02:42:28;100546.66;;;2.45;67.89
85821;BME280;76265;50.102;8.854;2024-03-08T02:44:55;100545.88;;;2.43;68.32
85821;BME280;76265;50.102;8.854;2024-03-08T02:47:22;100553.06;;;2.41;68.59
85821;BME280;76265;50.102;8.854;2024-03-08T02:49:49;100544.31;;;2.39;67.77
85821;BME280;76265;50.102;8.854;2024-03-08T02:52:16;100542.72;;;2.35;68.55
85821;BME280;76265;50.102;8.854;2024-03-08T02:54:46;100542.88;;;2.32;67.97
85821;BME280;76265;50.102;8.854;2024-03-08T02:57:14;100540.38;;;2.29;68.21
85821;BME280;76265;50.102;8.854;2024-03-08T02:59:42;100540.56;;;2.25;68.38
85821;BME280;76265;50.102;8.854;2024-03-08T03:02:09;100545.16;;;2.21;68.99
85821;BME280;76265;50.102;8.854;2024-03-08T03:04:39;100540.84;;;2.19;68.66
85821;BME280;76265;50.102;8.854;2024-03-08T03:07:06;100533.00;;;2.15;68.85
85821;BME280;76265;50.102;8.854;2024-03-08T03:09:33;100533.16;;;2.12;69.31
85821;BME280;76265;50.102;8.854;2024-03-08T03:12:00;100541.19;;;2.11;69.62
85821;BME280;76265;50.102;8.854;2024-03-08T03:14:29;100533.34;;;2.08;69.57
85821;BME280;76265;50.102;8.854;2024-03-08T03:16:56;100541.47;;;2.05;69.80
85821;BME280;76265;50.102;8.854;2024-03-08T03:19:23;100532.00;;;1.99;70.13
85821;BME280;76265;50.102;8.854;2024-03-08T03:21:50;100525.13;;;1.94;70.27
85821;BME280;76265;50.102;8.854;2024-03-08T03:24:18;100526.72;;;1.98;70.35
85821;BME280;76265;50.102;8.854;2024-03-08T03:26:46;100532.16;;;1.95;70.31
85821;BME280;76265;50.102;8.854;2024-03-08T03:29:15;100525.34;;;1.89;70.77
85821;BME280;76265;50.102;8.854;2024-03-08T03:31:44;100528.94;;;1.88;71.04
85821;BME280;76265;50.102;8.854;2024-03-08T03:34:12;100529.00;;;1.87;70.66
85821;BME280;76265;50.102;8.854;2024-03-08T03:36:39;100525.56;;;1.84;70.89
85821;BME280;76265;50.102;8.854;2024-03-08T03:39:08;100527.41;;;1.82;71.39
85821;BME280;76265;50.102;8.854;2024-03-08T03:41:38;100521.38;;;1.79;71.02
85821;BME280;76265;50.102;8.854;2024-03-08T03:44:06;100515.41;;;1.74;72.25
85821;BME280;76265;50.102;8.854;2024-03-08T03:46:33;100514.59;;;1.72;72.02
85821;BME280;76265;50.102;8.854;2024-03-08T03:49:02;100512.00;;;1.70;71.82
85821;BME280;76265;50.102;8.854;2024-03-08T03:51:30;100515.81;;;1.65;72.16
85821;BME280;76265;50.102;8.854;2024-03-08T03:53:57;100521.25;;;1.62;72.02
85821;BME280;76265;50.102;8.854;2024-03-08T03:56:27;100504.06;;;1.50;72.33
85821;BME280;76265;50.102;8.854;2024-03-08T03:58:54;100508.31;;;1.54;71.97
85821;BME280;76265;50.102;8.854;2024-03-08T04:01:21;100510.19;;;1.52;72.90
85821;BME280;76265;50.102;8.854;2024-03-08T04:03:48;100508.53;;;1.49;72.29
85821;BME280;76265;50.102;8.854;2024-03-08T04:06:16;100506.03;;;1.45;72.85
85821;BME280;76265;50.102;8.854;2024-03-08T04:08:43;100512.28;;;1.44;73.27
85821;BME280;76265;50.102;8.854;2024-03-08T04:11:10;100513.34;;;1.40;73.45
85821;BME280;76265;50.102;8.854;2024-03-08T04:13:37;100502.13;;;1.33;74.02
85821;BME280;76265;50.102;8.854;2024-03-08T04:16:05;100508.09;;;1.38;73.08
85821;BME280;76265;50.102;8.854;2024-03-08T04:18:34;100510.03;;;1.35;73.56
85821;BME280;76265;50.102;8.854;2024-03-08T04:21:04;100500.47;;;1.31;73.92
85821;BME280;76265;50.102;8.854;2024-03-08T04:23:35;100505.84;;;1.29;73.94
85821;BME280;76265;50.102;8.854;2024-03-08T04:26:03;100511.22;;;1.28;74.22
85821;BME280;76265;50.102;8.854;2024-03-08T04:28:30;100506.84;;;1.27;74.56
85821;BME280;76265;50.102;8.854;2024-03-08T04:30:57;100510.44;;;1.26;73.99
85821;BME280;76265;50.102;8.854;2024-03-08T04:33:26;100508.56;;;1.28;74.34
85821;BME280;76265;50.102;8.854;2024-03-08T04:35:53;100506.00;;;1.26;74.75
85821;BME280;76265;50.102;8.854;2024-03-08T04:38:20;100510.44;;;1.26;73.70
85821;BME280;76265;50.102;8.854;2024-03-08T04:40:49;100501.63;;;1.23;74.34
85821;BME280;76265;50.102;8.854;2024-03-08T04:43:17;100503.50;;;1.21;74.38
85821;BME280;76265;50.102;8.854;2024-03-08T04:45:46;100505.34;;;1.19;74.56
85821;BME280;76265;50.102;8.854;2024-03-08T04:48:14;100504.50;;;1.19;73.84
85821;BME280;76265;50.102;8.854;2024-03-08T04:50:41;100506.28;;;1.18;74.12
85821;BME280;76265;50.102;8.854;2024-03-08T04:53:08;100502.84;;;1.16;74.38
85821;BME280;76265;50.102;8.854;2024-03-08T04:55:35;100493.28;;;1.12;74.54
85821;BME280;76265;50.102;8.854;2024-03-08T04:58:04;100499.44;;;1.13;74.10
85821;BME280;76265;50.102;8.854;2024-03-08T05:00:33;100496.94;;;1.10;74.23
85821;BME280;76265;50.102;8.854;2024-03-08T05:03:00;100503.16;;;1.09;74.40
85821;BME280;76265;50.102;8.854;2024-03-08T05:05:28;100501.50;;;1.06;74.88
85821;BME280;76265;50.102;8.854;2024-03-08T05:07:56;100498.13;;;1.03;74.53
85821;BME280;76265;50.102;8.854;2024-03-08T05:10:23;100492.06;;;0.99;75.30
85821;BME280;76265;50.102;8.854;2024-03-08T05:12:50;100499.22;;;0.97;75.60
85821;BME280;76265;50.102;8.854;2024-03-08T05:15:19;100494.97;;;0.93;75.81
85821;BME280;76265;50.102;8.854;2024-03-08T05:17:47;100497.75;;;0.90;76.08
85821;BME280;76265;50.102;8.854;2024-03-08T05:20:14;100494.44;;;0.85;75.10
85821;BME280;76265;50.102;8.854;2024-03-08T05:22:43;100490.13;;;0.82;76.44
85821;BME280;76265;50.102;8.854;2024-03-08T05:25:10;100489.38;;;0.79;76.76
85821;BME280;76265;50.102;8.854;2024-03-08T05:27:38;100489.50;;;0.76;76.75
85821;BME280;76265;50.102;8.854;2024-03-08T05:30:05;100491.47;;;0.71;76.67
85821;BME280;76265;50.102;8.854;2024-03-08T05:32:34;100484.56;;;0.67;77.48
85821;BME280;76265;50.102;8.854;2024-03-08T05:35:01;100486.41;;;0.65;77.16
85821;BME280;76265;50.102;8.854;2024-03-08T05:37:32;100490.91;;;0.63;77.67
85821;BME280;76265;50.102;8.854;2024-03-08T05:39:59;100476.06;;;0.58;77.43
85821;BME280;76265;50.102;8.854;2024-03-08T05:42:26;100475.31;;;0.55;77.99
85821;BME280;76265;50.102;8.854;2024-03-08T05:44:54;100478.91;;;0.54;78.06
85821;BME280;76265;50.102;8.854;2024-03-08T05:47:23;100465.19;;;0.43;77.94
85821;BME280;76265;50.102;8.854;2024-03-08T05:49:51;100481.72;;;0.49;78.20
85821;BME280;76265;50.102;8.854;2024-03-08T05:52:19;100467.72;;;0.46;78.33
85821;BME280;76265;50.102;8.854;2024-03-08T05:54:46;100467.78;;;0.44;79.16
85821;BME280;76265;50.102;8.854;2024-03-08T05:57:13;100476.41;;;0.49;79.02
85821;BME280;76265;50.102;8.854;2024-03-08T05:59:40;100479.13;;;0.48;79.28
85821;BME280;76265;50.102;8.854;2024-03-08T06:02:07;100472.09;;;0.47;79.34
85821;BME280;76265;50.102;8.854;2024-03-08T06:04:34;100477.41;;;0.47;79.70
85821;BME280;76265;50.102;8.854;2024-03-08T06:07:02;100474.69;;;0.48;79.13
85821;BME280;76265;50.102;8.854;2024-03-08T06:09:29;100469.38;;;0.48;79.49
85821;BME280;76265;50.102;8.854;2024-03-08T06:11:56;100474.69;;;0.48;79.49
85821;BME280;76265;50.102;8.854;2024-03-08T06:14:23;100467.59;;;0.49;79.74
85821;BME280;76265;50.102;8.854;2024-03-08T06:16:50;100473.81;;;0.48;80.22
85821;BME280;76265;50.102;8.854;2024-03-08T06:19:18;100474.66;;;0.50;79.80
85821;BME280;76265;50.102;8.854;2024-03-08T06:21:45;100478.97;;;0.52;80.17
85821;BME280;76265;50.102;8.854;2024-03-08T06:24:13;100479.75;;;0.54;79.86
85821;BME280;76265;50.102;8.854;2024-03-08T06:26:40;100475.19;;;0.58;80.01
85821;BME280;76265;50.102;8.854;2024-03-08T06:29:08;100468.03;;;0.60;80.02
85821;BME280;76265;50.102;8.854;2024-03-08T06:31:35;100471.38;;;0.65;79.75
85821;BME280;76265;50.102;8.854;2024-03-08T06:34:04;100477.41;;;0.69;78.93
85821;BME280;76265;50.102;8.854;2024-03-08T06:36:33;100468.59;;;0.68;79.59
85821;BME280;76265;50.102;8.854;2024-03-08T06:39:00;100472.75;;;0.75;78.79
85821;BME280;76265;50.102;8.854;2024-03-08T06:41:36;100475.19;;;0.80;79.66
85821;BME280;76265;50.102;8.854;2024-03-08T06:44:03;100469.63;;;0.86;79.05
85821;BME280;76265;50.102;8.854;2024-03-08T06:46:31;100472.88;;;0.92;79.48
85821;BME280;76265;50.102;8.854;2024-03-08T06:48:58;100471.66;;;1.01;78.85
85821;BME280;76265;50.102;8.854;2024-03-08T06:51:25;100471.19;;;1.12;78.58
85821;BME280;76265;50.102;8.854;2024-03-08T06:53:51;100461.81;;;1.23;78.26
85821;BME280;76265;50.102;8.854;2024-03-08T06:56:19;100462.13;;;1.38;77.58
85821;BME280;76265;50.102;8.854;2024-03-08T06:58:47;100459.72;;;1.52;76.58
85821;BME280;76265;50.102;8.854;2024-03-08T07:01:15;100446.81;;;1.63;76.98
85821;BME280;76265;50.102;8.854;2024-03-08T07:03:43;100449.44;;;1.83;76.35
85821;BME280;76265;50.102;8.854;2024-03-08T07:06:10;100459.16;;;2.03;75.63
85821;BME280;76265;50.102;8.854;2024-03-08T07:08:37;100445.84;;;2.22;73.76
85821;BME280;76265;50.102;8.854;2024-03-08T07:11:05;100446.72;;;2.41;73.50
85821;BME280;76265;50.102;8.854;2024-03-08T07:13:32;100448.41;;;2.61;72.53
85821;BME280;76265;50.102;8.854;2024-03-08T07:16:00;100442.91;;;2.83;72.35
85821;BME280;76265;50.102;8.854;2024-03-08T07:18:27;100440.97;;;3.04;71.04
85821;BME280;76265;50.102;8.854;2024-03-08T07:20:55;100432.84;;;3.24;70.01
85821;BME280;76265;50.102;8.854;2024-03-08T07:23:23;100428.03;;;3.48;68.83
85821;BME280;76265;50.102;8.854;2024-03-08T07:26:15;100425.88;;;3.72;67.91
85821;BME280;76265;50.102;8.854;2024-03-08T07:28:44;100423.81;;;3.93;66.94
85821;BME280;76265;50.102;8.854;2024-03-08T07:31:12;100414.66;;;4.14;66.52
85821;BME280;76265;50.102;8.854;2024-03-08T07:33:47;100416.88;;;4.38;65.30
85821;BME280;76265;50.102;8.854;2024-03-08T07:36:16;100409.28;;;4.61;64.37
85821;BME280;76265;50.102;8.854;2024-03-08T07:38:43;100409.59;;;4.87;64.59
85821;BME280;76265;50.102;8.854;2024-03-08T07:41:12;100396.59;;;5.11;63.34
85821;BME280;76265;50.102;8.854;2024-03-08T07:43:39;100399.31;;;5.39;62.72
85821;BME280;76265;50.102;8.854;2024-03-08T07:46:06;100397.72;;;5.65;61.50
85821;BME280;76265;50.102;8.854;2024-03-08T07:48:37;100389.13;;;5.88;60.87
85821;BME280;76265;50.102;8.854;2024-03-08T07:51:05;100393.59;;;6.16;60.48
85821;BME280;76265;50.102;8.854;2024-03-08T07:53:35;100388.59;;;6.39;58.53
85821;BME280;76265;50.102;8.854;2024-03-08T07:56:02;100376.25;;;6.63;58.79
85821;BME280;76265;50.102;8.854;2024-03-08T07:58:30;100379.97;;;6.88;58.11
85821;BME280;76265;50.102;8.854;2024-03-08T08:00:57;100379.94;;;7.15;57.00
85821;BME280;76265;50.102;8.854;2024-03-08T08:03:24;100362.25;;;7.37;56.91
85821;BME280;76265;50.102;8.854;2024-03-08T08:05:54;100365.03;;;7.61;55.58
85821;BME280;76265;50.102;8.854;2024-03-08T08:08:21;100365.25;;;7.84;54.26
85821;BME280;76265;50.102;8.854;2024-03-08T08:10:48;100355.31;;;8.10;53.31
85821;BME280;76265;50.102;8.854;2024-03-08T08:13:15;100357.22;;;8.20;52.81
85821;BME280;76265;50.102;8.854;2024-03-08T08:15:43;100353.31;;;8.37;51.73
85821;BME280;76265;50.102;8.854;2024-03-08T08:18:11;100348.31;;;8.56;52.16
85821;BME280;76265;50.102;8.854;2024-03-08T08:20:39;100346.94;;;8.75;51.54
85821;BME280;76265;50.102;8.854;2024-03-08T08:23:08;100350.06;;;8.92;51.29
85821;BME280;76265;50.102;8.854;2024-03-08T08:25:37;100340.19;;;9.04;50.15
85821;BME280;76265;50.102;8.854;2024-03-08T08:28:05;100335.59;;;9.29;50.71
85821;BME280;76265;50.102;8.854;2024-03-08T08:30:32;100339.06;;;9.53;51.33
85821;BME280;76265;50.102;8.854;2024-03-08T08:32:59;100330.38;;;9.72;50.08
85821;BME280;76265;50.102;8.854;2024-03-08T08:35:26;100331.97;;;9.97;48.52
85821;BME280;76265;50.102;8.854;2024-03-08T08:37:54;100326.53;;;10.19;47.76
85821;BME280;76265;50.102;8.854;2024-03-08T08:40:23;100318.78;;;10.37;48.06
85821;BME280;76265;50.102;8.854;2024-03-08T08:42:50;100312.41;;;10.49;46.27
85821;BME280;76265;50.102;8.854;2024-03-08T08:45:18;100311.97;;;10.65;45.93
85821;BME280;76265;50.102;8.854;2024-03-08T08:47:46;100310.16;;;10.86;46.34
85821;BME280;76265;50.102;8.854;2024-03-08T08:50:12;100304.00;;;10.95;45.11
85821;BME280;76265;50.102;8.854;2024-03-08T08:52:40;100293.47;;;10.92;44.15
85821;BME280;76265;50.102;8.854;2024-03-08T08:55:09;100304.44;;;11.00;44.82
85821;BME280;76265;50.102;8.854;2024-03-08T08:57:41;100291.25;;;10.97;43.70
85821;BME280;76265;50.102;8.854;2024-03-08T09:00:09;100292.16;;;11.07;45.44
85821;BME280;76265;50.102;8.854;2024-03-08T09:02:40;100295.69;;;11.29;45.29
85821;BME280;76265;50.102;8.854;2024-03-08T09:05:07;100288.97;;;11.44;43.94
85821;BME280;76265;50.102;8.854;2024-03-08T09:07:35;100292.38;;;11.46;42.49
85821;BME280;76265;50.102;8.854;2024-03-08T09:10:02;100277.66;;;11.60;42.42
85821;BME280;76265;50.102;8.854;2024-03-08T09:12:29;100284.63;;;11.62;42.34
85821;BME280;76265;50.102;8.854;2024-03-08T09:14:59;100281.25;;;11.70;42.62
85821;BME280;76265;50.102;8.854;2024-03-08T09:17:26;100273.47;;;11.77;42.19
85821;BME280;76265;50.102;8.854;2024-03-08T09:19:53;100256.47;;;11.86;41.82
85821;BME280;76265;50.102;8.854;2024-03-08T09:22:20;100252.88;;;11.76;40.76
85821;BME280;76265;50.102;8.854;2024-03-08T09:24:48;100262.09;;;11.73;41.56
85821;BME280;76265;50.102;8.854;2024-03-08T09:27:15;100242.75;;;11.68;41.50
85821;BME280;76265;50.102;8.854;2024-03-08T09:29:42;100255.41;;;11.67;40.98
85821;BME280;76265;50.102;8.854;2024-03-08T09:32:11;100247.56;;;11.64;40.99
85821;BME280;76265;50.102;8.854;2024-03-08T09:34:38;100249.28;;;11.65;41.00
85821;BME280;76265;50.102;8.854;2024-03-08T09:37:06;100223.72;;;11.69;41.06
85821;BME280;76265;50.102;8.854;2024-03-08T09:39:34;100244.50;;;11.79;41.02
85821;BME280;76265;50.102;8.854;2024-03-08T09:42:01;100224.06;;;11.86;41.30
85821;BME280;76265;50.102;8.854;2024-03-08T09:44:29;100213.59;;;12.02;41.06
85821;BME280;76265;50.102;8.854;2024-03-08T09:46:57;100213.03;;;12.27;41.35
85821;BME280;76265;50.102;8.854;2024-03-08T09:49:26;100206.22;;;12.52;40.47
85821;BME280;76265;50.102;8.854;2024-03-08T09:51:53;100219.84;;;12.80;40.74
85821;BME280;76265;50.102;8.854;2024-03-08T09:54:21;100205.56;;;12.97;39.45
85821;BME280;76265;50.102;8.854;2024-03-08T09:56:51;100197.28;;;13.08;38.00
85821;BME280;76265;50.102;8.854;2024-03-08T09:59:18;100192.13;;;13.24;38.77
85821;BME280;76265;50.102;8.854;2024-03-08T10:02:13;100187.56;;;13.25;37.65
85821;BME280;76265;50.102;8.854;2024-03-08T10:04:43;100183.16;;;13.51;37.82
85821;BME280;76265;50.102;8.854;2024-03-08T10:07:13;100177.66;;;13.71;38.62
85821;BME280;76265;50.102;8.854;2024-03-08T10:09:40;100175.66;;;13.73;37.52
85821;BME280;76265;50.102;8.854;2024-03-08T10:12:13;100171.16;;;13.64;36.80
85821;BME280;76265;50.102;8.854;2024-03-08T10:14:40;100168.69;;;13.70;37.57
85821;BME280;76265;50.102;8.854;2024-03-08T10:17:08;100173.88;;;13.81;36.80
85821;BME280;76265;50.102;8.854;2024-03-08T10:19:35;100157.97;;;13.96;36.49
85821;BME280;76265;50.102;8.854;2024-03-08T10:22:04;100151.59;;;14.23;36.51
85821;BME280;76265;50.102;8.854;2024-03-08T10:24:33;100159.97;;;14.48;35.88
85821;BME280;76265;50.102;8.854;2024-03-08T10:27:00;100143.59;;;14.57;34.95
85821;BME280;76265;50.102;8.854;2024-03-08T10:29:31;100151.44;;;14.86;34.97
85821;BME280;76265;50.102;8.854;2024-03-08T10:31:58;100148.41;;;15.15;33.95
85821;BME280;76265;50.102;8.854;2024-03-08T10:34:25;100153.81;;;15.57;33.60
85821;BME280;76265;50.102;8.854;2024-03-08T10:36:52;100143.63;;;15.93;33.45
85821;BME280;76265;50.102;8.854;2024-03-08T10:39:25;100128.84;;;16.20;31.55
85821;BME280;76265;50.102;8.854;2024-03-08T10:41:53;100123.56;;;16.51;31.17
85821;BME280;76265;50.102;8.854;2024-03-08T10:44:40;100136.84;;;16.87;30.58
85821;BME280;76265;50.102;8.854;2024-03-08T10:47:17;100122.16;;;17.04;30.26
85821;BME280;76265;50.102;8.854;2024-03-08T10:49:51;100120.84;;;17.31;29.90
85821;BME280;76265;50.102;8.854;2024-03-08T10:52:19;100117.50;;;17.60;29.59
85821;BME280;76265;50.102;8.854;2024-03-08T10:54:48;100114.22;;;17.73;29.72
85821;BME280;76265;50.102;8.854;2024-03-08T10:57:17;100105.78;;;18.13;28.27
85821;BME280;76265;50.102;8.854;2024-03-08T10:59:46;100104.34;;;18.40;28.22
85821;BME280;76265;50.102;8.854;2024-03-08T11:02:16;100101.53;;;18.49;27.14
85821;BME280;76265;50.102;8.854;2024-03-08T11:04:48;100092.03;;;18.82;27.51
85821;BME280;76265;50.102;8.854;2024-03-08T11:07:16;100092.78;;;19.35;27.42
85821;BME280;76265;50.102;8.854;2024-03-08T11:09:48;100086.06;;;19.52;26.74
85821;BME280;76265;50.102;8.854;2024-03-08T11:12:23;100091.25;;;19.47;26.56
85821;BME280;76265;50.102;8.854;2024-03-08T11:14:55;100083.16;;;19.90;27.90
85821;BME280;76265;50.102;8.854;2024-03-08T11:17:45;100072.53;;;20.02;24.73
85821;BME280;76265;50.102;8.854;2024-03-08T11:20:14;100062.00;;;20.41;25.89
85821;BME280;76265;50.102;8.854;2024-03-08T11:22:50;100074.16;;;20.17;24.65
85821;BME280;76265;50.102;8.854;2024-03-08T11:25:33;100076.56;;;20.48;25.37
85821;BME280;76265;50.102;8.854;2024-03-08T11:28:18;100073.81;;;20.27;24.36
85821;BME280;76265;50.102;8.854;2024-03-08T11:30:46;100067.91;;;20.23;25.03
85821;BME280;76265;50.102;8.854;2024-03-08T11:33:15;100067.91;;;20.23;24.75
85821;BME280;76265;50.102;8.854;2024-03-08T11:35:43;100057.06;;;20.93;25.68
85821;BME280;76265;50.102;8.854;2024-03-08T11:38:12;100046.03;;;21.14;24.22
85821;BME280;76265;50.102;8.854;2024-03-08T11:40:41;100051.78;;;20.84;24.10
85821;BME280;76265;50.102;8.854;2024-03-08T11:43:08;100049.03;;;20.84;25.00
85821;BME280;76265;50.102;8.854;2024-03-08T11:45:36;100046.75;;;20.95;24.18
85821;BME280;76265;50.102;8.854;2024-03-08T11:48:04;100039.00;;;21.46;23.86
85821;BME280;76265;50.102;8.854;2024-03-08T11:50:31;100033.38;;;21.67;22.98
85821;BME280;76265;50.102;8.854;2024-03-08T11:53:03;100018.03;;;21.93;23.25
85821;BME280;76265;50.102;8.854;2024-03-08T11:55:31;100023.91;;;21.70;23.51
85821;BME280;76265;50.102;8.854;2024-03-08T11:58:04;100005.19;;;22.20;22.76
85821;BME280;76265;50.102;8.854;2024-03-08T12:00:34;100010.00;;;21.91;24.50
85821;BME280;76265;50.102;8.854;2024-03-08T12:03:05;100010.91;;;22.12;23.16
85821;BME280;76265;50.102;8.854;2024-03-08T12:05:32;99987.25;;;22.24;22.91
85821;BME280;76265;50.102;8.854;2024-03-08T12:08:00;100002.38;;;22.72;23.24
85821;BME280;76265;50.102;8.854;2024-03-08T12:10:28;99989.31;;;23.32;22.80
85821;BME280;76265;50.102;8.854;2024-03-08T12:12:57;99986.63;;;23.64;22.12
85821;BME280;76265;50.102;8.854;2024-03-08T12:15:28;99985.97;;;23.93;20.41
85821;BME280;76265;50.102;8.854;2024-03-08T12:17:55;99988.44;;;24.02;20.71
85821;BME280;76265;50.102;8.854;2024-03-08T12:20:24;99990.13;;;24.03;20.15
85821;BME280;76265;50.102;8.854;2024-03-08T12:22:53;99973.56;;;23.84;20.24
85821;BME280;76265;50.102;8.854;2024-03-08T12:25:25;99973.44;;;24.29;20.88
85821;BME280;76265;50.102;8.854;2024-03-08T12:27:52;99969.78;;;24.35;20.90
85821;BME280;76265;50.102;8.854;2024-03-08T12:30:22;99964.28;;;24.35;20.22
85821;BME280;76265;50.102;8.854;2024-03-08T12:32:55;99972.13;;;24.07;19.51
85821;BME280;76265;50.102;8.854;2024-03-08T12:35:24;99967.34;;;24.45;19.94
85821;BME280;76265;50.102;8.854;2024-03-08T12:37:52;99969.31;;;24.81;20.39
85821;BME280;76265;50.102;8.854;2024-03-08T12:40:26;99960.28;;;25.11;19.58
85821;BME280;76265;50.102;8.854;2024-03-08T12:42:54;99957.50;;;24.56;19.39
85821;BME280;76265;50.102;8.854;2024-03-08T12:45:22;99968.75;;;24.54;19.61
85821;BME280;76265;50.102;8.854;2024-03-08T12:47:50;99957.03;;;24.96;19.71
85821;BME280;76265;50.102;8.854;2024-03-08T12:50:18;99939.75;;;25.37;19.87
85821;BME280;76265;50.102;8.854;2024-03-08T12:52:46;99940.56;;;25.56;19.74
85821;BME280;76265;50.102;8.854;2024-03-08T12:55:14;99938.44;;;25.39;18.88
85821;BME280;76265;50.102;8.854;2024-03-08T12:57:44;99936.34;;;25.53;20.26
85821;BME280;76265;50.102;8.854;2024-03-08T13:00:13;99937.66;;;25.92;19.37
85821;BME280;76265;50.102;8.854;2024-03-08T13:02:44;99936.56;;;25.82;18.23
85821;BME280;76265;50.102;8.854;2024-03-08T13:05:12;99924.25;;;25.54;19.15